sensor_id;sensor_type;location;lat;lon;timestamp;temperature;humidity
19888;DHT22;10106;51.332;12.336;2022-12-18T00:00:54;-6.90;99.90
19888;DHT22;10106;51.332;12.336;2022-12-18T00:03:19;-6.90;99.90
19888;DHT22;10106;51.332;12.336;2022-12-18T00:05:46;-7.00;99.90
19888;DHT22;10106;51.332;12.336;2022-12-18T00:08:11;-7.00;99.90
19888;DHT22;10106;51.332;12.336;2022-12-18T00:10:37;-7.00;99.90
19888;DHT22;10106;51.332;12.336;2022-12-18T00:13:02;-7.00;99.90
19888;DHT22;10106;51.332;12.336;2022-12-18T00:15:28;-7.00;99.90
19888;DHT22;10106;51.332;12.336;2022-12-18T00:17:53;-7.00;99.90
19888;DHT22;10106;51.332;12.336;2022-12-18T00:20:19;-7.00;99.90
19888;DHT22;10106;51.332;12.336;2022-12-18T00:22:51;-7.00;99.90
19888;DHT22;10106;51.332;12.336;2022-12-18T00:25:17;-7.10;99.90
19888;DHT22;10106;51.332;12.336;2022-12-18T00:27:42;-7.20;99.90
19888;DHT22;10106;51.332;12.336;2022-12-18T00:30:08;-7.10;99.90
19888;DHT22;10106;51.332;12.336;2022-12-18T00:32:33;-7.10;99.90
19888;DHT22;10106;51.332;12.336;2022-12-18T00:34:59;-7.10;99.90
19888;DHT22;10106;51.332;12.336;2022-12-18T00:37:24;-7.10;99.90
19888;DHT22;10106;51.332;12.336;2022-12-18T00:39:50;-7.10;99.90
19888;DHT22;10106;51.332;12.336;2022-12-18T00:42:15;-7.10;99.90
19888;DHT22;10106;51.332;12.336;2022-12-18T00:45:00;-7.20;99.90
19888;DHT22;10106;51.332;12.336;2022-12-18T00:47:25;-7.20;99.90
19888;DHT22;10106;51.332;12.336;2022-12-18T00:49:51;-7.30;99.90
19888;DHT22;10106;51.332;12.336;2022-12-18T00:52:16;-7.30;99.90
19888;DHT22;10106;51.332;12.336;2022-12-18T00:54:42;-7.30;99.90
19888;DHT22;10106;51.332;12.336;2022-12-18T00:57:07;-7.30;99.90
19888;DHT22;10106;51.332;12.336;2022-12-18T00:59:33;-7.30;99.90
19888;DHT22;10106;51.332;12.336;2022-12-18T01:01:58;-7.30;99.90
19888;DHT22;10106;51.332;12.336;2022-12-18T01:04:24;-7.40;99.90
19888;DHT22;10106;51.332;12.336;2022-12-18T01:06:49;-7.40;99.90
19888;DHT22;10106;51.332;12.336;2022-12-18T01:09:15;-7.40;99.90
19888;DHT22;10106;51.332;12.336;2022-12-18T01:11:40;-7.40;99.90
19888;DHT22;10106;51.332;12.336;2022-12-18T01:14:06;-7.30;99.90
19888;DHT22;10106;51.332;12.336;2022-12-18T01:16:31;-7.40;99.90
19888;DHT22;10106;51.332;12.336;2022-12-18T01:18:57;-7.40;99.90
19888;DHT22;10106;51.332;12.336;2022-12-18T01:21:23;-7.30;99.90
19888;DHT22;10106;51.332;12.336;2022-12-18T01:23:52;-7.30;99.90
19888;DHT22;10106;51.332;12.336;2022-12-18T01:26:18;-7.30;99.90
19888;DHT22;10106;51.332;12.336;2022-12-18T01:28:44;-7.30;99.90
19888;DHT22;10106;51.332;12.336;2022-12-18T01:31:20;-7.30;99.90
19888;DHT22;10106;51.332;12.336;2022-12-18T01:33:46;-7.40;99.90
19888;DHT22;10106;51.332;12.336;2022-12-18T01:36:15;-7.40;99.90
19888;DHT22;10106;51.332;12.336;2022-12-18T01:38:41;-7.40;99.90
19888;DHT22;10106;51.332;12.336;2022-12-18T01:41:07;-7.40;99.90
19888;DHT22;10106;51.332;12.336;2022-12-18T01:46:08;-7.40;99.90
19888;DHT22;10106;51.332;12.336;2022-12-18T01:48:34;-7.30;99.90
19888;DHT22;10106;51.332;12.336;2022-12-18T01:51:00;-7.40;99.90
19888;DHT22;10106;51.332;12.336;2022-12-18T01:53:26;-7.40;99.90
19888;DHT22;10106;51.332;12.336;2022-12-18T01:55:52;-7.40;99.90
19888;DHT22;10106;51.332;12.336;2022-12-18T01:58:19;-7.40;99.90
19888;DHT22;10106;51.332;12.336;2022-12-18T02:00:45;-7.50;99.90
19888;DHT22;10106;51.332;12.336;2022-12-18T02:03:10;-7.40;99.90
19888;DHT22;10106;51.332;12.336;2022-12-18T02:08:21;-7.50;99.90
19888;DHT22;10106;51.332;12.336;2022-12-18T02:11:00;-7.40;99.90
19888;DHT22;10106;51.332;12.336;2022-12-18T02:18:38;-7.50;99.90
19888;DHT22;10106;51.332;12.336;2022-12-18T02:26:50;-7.60;99.90
19888;DHT22;10106;51.332;12.336;2022-12-18T02:29:22;-7.70;99.90
19888;DHT22;10106;51.332;12.336;2022-12-18T02:31:53;-7.60;99.90
19888;DHT22;10106;51.332;12.336;2022-12-18T02:34:19;-7.70;99.90
19888;DHT22;10106;51.332;12.336;2022-12-18T02:36:46;-7.70;99.90
19888;DHT22;10106;51.332;12.336;2022-12-18T02:39:13;-7.70;99.90
19888;DHT22;10106;51.332;12.336;2022-12-18T02:41:40;-7.70;99.90
19888;DHT22;10106;51.332;12.336;2022-12-18T02:44:07;-7.80;99.90
19888;DHT22;10106;51.332;12.336;2022-12-18T02:46:41;-7.80;99.90
19888;DHT22;10106;51.332;12.336;2022-12-18T02:49:17;-7.80;99.90
19888;DHT22;10106;51.332;12.336;2022-12-18T02:51:54;-7.80;99.90
19888;DHT22;10106;51.332;12.336;2022-12-18T02:56:49;-7.80;99.90
19888;DHT22;10106;51.332;12.336;2022-12-18T02:59:17;-7.80;99.90
19888;DHT22;10106;51.332;12.336;2022-12-18T03:06:51;-7.90;99.90
19888;DHT22;10106;51.332;12.336;2022-12-18T03:09:36;-7.90;99.90
19888;DHT22;10106;51.332;12.336;2022-12-18T03:12:10;-7.90;99.90
19888;DHT22;10106;51.332;12.336;2022-12-18T03:15:03;-7.90;99.90
19888;DHT22;10106;51.332;12.336;2022-12-18T03:17:30;-8.00;99.90
19888;DHT22;10106;51.332;12.336;2022-12-18T03:19:56;-7.90;99.90
19888;DHT22;10106;51.332;12.336;2022-12-18T03:22:23;-8.00;99.90
19888;DHT22;10106;51.332;12.336;2022-12-18T03:24:51;-8.00;99.90
19888;DHT22;10106;51.332;12.336;2022-12-18T03:27:18;-7.90;99.90
19888;DHT22;10106;51.332;12.336;2022-12-18T03:30:04;-8.00;99.90
19888;DHT22;10106;51.332;12.336;2022-12-18T03:32:40;-8.00;99.90
19888;DHT22;10106;51.332;12.336;2022-12-18T03:35:08;-8.00;99.90
19888;DHT22;10106;51.332;12.336;2022-12-18T03:37:35;-8.00;99.90
19888;DHT22;10106;51.332;12.336;2022-12-18T03:40:01;-8.00;99.90
19888;DHT22;10106;51.332;12.336;2022-12-18T03:45:12;-8.00;99.90
19888;DHT22;10106;51.332;12.336;2022-12-18T03:50:21;-8.00;99.90
19888;DHT22;10106;51.332;12.336;2022-12-18T03:53:01;-8.00;99.90
19888;DHT22;10106;51.332;12.336;2022-12-18T03:55:30;-8.00;99.90
19888;DHT22;10106;51.332;12.336;2022-12-18T03:57:58;-8.00;99.90
19888;DHT22;10106;51.332;12.336;2022-12-18T04:00:25;-8.00;99.90
19888;DHT22;10106;51.332;12.336;2022-12-18T04:02:52;-8.00;99.90
19888;DHT22;10106;51.332;12.336;2022-12-18T04:05:19;-8.00;99.90
19888;DHT22;10106;51.332;12.336;2022-12-18T04:07:45;-8.00;99.90
19888;DHT22;10106;51.332;12.336;2022-12-18T04:10:11;-8.00;99.90
19888;DHT22;10106;51.332;12.336;2022-12-18T04:12:37;-8.00;99.90
19888;DHT22;10106;51.332;12.336;2022-12-18T04:15:03;-8.00;99.90
19888;DHT22;10106;51.332;12.336;2022-12-18T04:17:28;-8.00;99.90
19888;DHT22;10106;51.332;12.336;2022-12-18T04:19:54;-8.00;99.90
19888;DHT22;10106;51.332;12.336;2022-12-18T04:22:19;-8.00;99.90
19888;DHT22;10106;51.332;12.336;2022-12-18T04:24:45;-8.00;99.90
19888;DHT22;10106;51.332;12.336;2022-12-18T04:27:11;-8.00;99.90
19888;DHT22;10106;51.332;12.336;2022-12-18T04:29:36;-8.00;99.90
19888;DHT22;10106;51.332;12.336;2022-12-18T04:32:02;-8.00;99.90
19888;DHT22;10106;51.332;12.336;2022-12-18T04:34:27;-8.00;99.90
19888;DHT22;10106;51.332;12.336;2022-12-18T04:36:53;-8.00;99.90
19888;DHT22;10106;51.332;12.336;2022-12-18T04:39:18;-8.00;99.90
19888;DHT22;10106;51.332;12.336;2022-12-18T04:41:44;-8.00;99.90
19888;DHT22;10106;51.332;12.336;2022-12-18T04:44:10;-8.00;99.90
19888;DHT22;10106;51.332;12.336;2022-12-18T04:46:35;-8.00;99.90
19888;DHT22;10106;51.332;12.336;2022-12-18T04:49:01;-8.00;99.90
19888;DHT22;10106;51.332;12.336;2022-12-18T04:51:26;-8.00;99.90
19888;DHT22;10106;51.332;12.336;2022-12-18T04:53:52;-8.00;99.90
19888;DHT22;10106;51.332;12.336;2022-12-18T04:56:18;-8.00;99.90
19888;DHT22;10106;51.332;12.336;2022-12-18T04:58:43;-8.00;99.90
19888;DHT22;10106;51.332;12.336;2022-12-18T05:01:10;-8.00;99.90
19888;DHT22;10106;51.332;12.336;2022-12-18T05:03:36;-8.00;99.90
19888;DHT22;10106;51.332;12.336;2022-12-18T05:06:02;-8.00;99.90
19888;DHT22;10106;51.332;12.336;2022-12-18T05:08:28;-8.00;99.90
19888;DHT22;10106;51.332;12.336;2022-12-18T05:11:03;-7.90;99.90
19888;DHT22;10106;51.332;12.336;2022-12-18T05:13:29;-7.90;99.90
19888;DHT22;10106;51.332;12.336;2022-12-18T05:15:55;-7.90;99.90
19888;DHT22;10106;51.332;12.336;2022-12-18T05:18:22;-7.90;99.90
19888;DHT22;10106;51.332;12.336;2022-12-18T05:20:47;-7.90;99.90
19888;DHT22;10106;51.332;12.336;2022-12-18T05:23:14;-7.90;99.90
19888;DHT22;10106;51.332;12.336;2022-12-18T05:25:39;-7.90;99.90
19888;DHT22;10106;51.332;12.336;2022-12-18T05:28:05;-7.90;99.90
19888;DHT22;10106;51.332;12.336;2022-12-18T05:30:30;-7.90;99.90
19888;DHT22;10106;51.332;12.336;2022-12-18T05:32:56;-7.90;99.90
19888;DHT22;10106;51.332;12.336;2022-12-18T05:35:21;-7.80;99.90
19888;DHT22;10106;51.332;12.336;2022-12-18T05:37:47;-7.80;99.90
19888;DHT22;10106;51.332;12.336;2022-12-18T05:40:12;-7.80;99.90
19888;DHT22;10106;51.332;12.336;2022-12-18T05:42:38;-7.90;99.90
19888;DHT22;10106;51.332;12.336;2022-12-18T05:45:04;-7.90;99.90
19888;DHT22;10106;51.332;12.336;2022-12-18T05:47:29;-7.90;99.90
19888;DHT22;10106;51.332;12.336;2022-12-18T05:49:55;-7.90;99.90
19888;DHT22;10106;51.332;12.336;2022-12-18T05:52:21;-7.90;99.90
19888;DHT22;10106;51.332;12.336;2022-12-18T05:54:46;-7.90;99.90
19888;DHT22;10106;51.332;12.336;2022-12-18T05:57:12;-7.90;99.90
19888;DHT22;10106;51.332;12.336;2022-12-18T05:59:37;-7.90;99.90
19888;DHT22;10106;51.332;12.336;2022-12-18T06:07:14;-7.90;99.90
19888;DHT22;10106;51.332;12.336;2022-12-18T06:09:39;-8.00;99.90
19888;DHT22;10106;51.332;12.336;2022-12-18T06:12:05;-8.00;99.90
19888;DHT22;10106;51.332;12.336;2022-12-18T06:14:33;-8.00;99.90
19888;DHT22;10106;51.332;12.336;2022-12-18T06:16:58;-8.00;99.90
19888;DHT22;10106;51.332;12.336;2022-12-18T06:19:24;-8.00;99.90
19888;DHT22;10106;51.332;12.336;2022-12-18T06:21:49;-8.00;99.90
19888;DHT22;10106;51.332;12.336;2022-12-18T06:24:15;-8.00;99.90
19888;DHT22;10106;51.332;12.336;2022-12-18T06:26:41;-8.00;99.90
19888;DHT22;10106;51.332;12.336;2022-12-18T06:29:07;-7.90;99.90
19888;DHT22;10106;51.332;12.336;2022-12-18T06:31:32;-7.90;99.90
19888;DHT22;10106;51.332;12.336;2022-12-18T06:33:58;-8.00;99.90
19888;DHT22;10106;51.332;12.336;2022-12-18T06:36:23;-8.00;99.90
19888;DHT22;10106;51.332;12.336;2022-12-18T06:38:49;-8.00;99.90
19888;DHT22;10106;51.332;12.336;2022-12-18T06:41:18;-8.00;99.90
19888;DHT22;10106;51.332;12.336;2022-12-18T06:43:44;-8.00;99.90
19888;DHT22;10106;51.332;12.336;2022-12-18T06:46:10;-8.00;99.90
19888;DHT22;10106;51.332;12.336;2022-12-18T06:48:35;-8.00;99.90
19888;DHT22;10106;51.332;12.336;2022-12-18T06:51:01;-8.10;99.90
19888;DHT22;10106;51.332;12.336;2022-12-18T06:53:27;-8.00;99.90
19888;DHT22;10106;51.332;12.336;2022-12-18T06:55:53;-7.50;99.90
19888;DHT22;10106;51.332;12.336;2022-12-18T06:58:24;-6.90;99.90
19888;DHT22;10106;51.332;12.336;2022-12-18T07:00:49;-7.20;99.90
19888;DHT22;10106;51.332;12.336;2022-12-18T07:03:15;-7.30;99.90
19888;DHT22;10106;51.332;12.336;2022-12-18T07:05:40;-7.40;99.90
19888;DHT22;10106;51.332;12.336;2022-12-18T07:08:06;-7.50;99.90
19888;DHT22;10106;51.332;12.336;2022-12-18T07:10:31;-7.60;99.90
19888;DHT22;10106;51.332;12.336;2022-12-18T07:12:57;-7.60;99.90
19888;DHT22;10106;51.332;12.336;2022-12-18T07:15:22;-7.70;99.90
19888;DHT22;10106;51.332;12.336;2022-12-18T07:17:48;-7.70;99.90
19888;DHT22;10106;51.332;12.336;2022-12-18T07:20:14;-7.60;99.90
19888;DHT22;10106;51.332;12.336;2022-12-18T07:22:39;-7.60;99.90
19888;DHT22;10106;51.332;12.336;2022-12-18T07:25:05;-7.60;99.90
19888;DHT22;10106;51.332;12.336;2022-12-18T07:27:31;-7.70;99.90
19888;DHT22;10106;51.332;12.336;2022-12-18T07:29:56;-7.70;99.90
19888;DHT22;10106;51.332;12.336;2022-12-18T07:32:22;-7.60;99.90
19888;DHT22;10106;51.332;12.336;2022-12-18T07:34:47;-7.60;99.90
19888;DHT22;10106;51.332;12.336;2022-12-18T07:37:14;-7.60;99.90
19888;DHT22;10106;51.332;12.336;2022-12-18T07:39:39;-7.60;99.90
19888;DHT22;10106;51.332;12.336;2022-12-18T07:42:05;-7.60;99.90
19888;DHT22;10106;51.332;12.336;2022-12-18T07:44:49;-7.60;99.90
19888;DHT22;10106;51.332;12.336;2022-12-18T07:47:14;-7.60;99.90
19888;DHT22;10106;51.332;12.336;2022-12-18T07:49:40;-7.60;99.90
19888;DHT22;10106;51.332;12.336;2022-12-18T07:52:05;-7.50;99.90
19888;DHT22;10106;51.332;12.336;2022-12-18T07:54:31;-7.50;99.90
19888;DHT22;10106;51.332;12.336;2022-12-18T07:56:56;-7.50;99.90
19888;DHT22;10106;51.332;12.336;2022-12-18T07:59:22;-7.40;99.90
19888;DHT22;10106;51.332;12.336;2022-12-18T08:01:47;-7.40;99.90
19888;DHT22;10106;51.332;12.336;2022-12-18T08:04:13;-7.40;99.90
19888;DHT22;10106;51.332;12.336;2022-12-18T08:06:38;-7.30;99.90
19888;DHT22;10106;51.332;12.336;2022-12-18T08:09:04;-7.20;99.90
19888;DHT22;10106;51.332;12.336;2022-12-18T08:11:30;-6.10;99.90
19888;DHT22;10106;51.332;12.336;2022-12-18T08:13:56;-3.80;99.90
19888;DHT22;10106;51.332;12.336;2022-12-18T08:16:22;-3.70;99.90
19888;DHT22;10106;51.332;12.336;2022-12-18T08:18:48;-2.00;99.90
19888;DHT22;10106;51.332;12.336;2022-12-18T08:21:24;0.10;99.90
19888;DHT22;10106;51.332;12.336;2022-12-18T08:23:50;1.30;99.90
19888;DHT22;10106;51.332;12.336;2022-12-18T08:26:16;2.20;99.90
19888;DHT22;10106;51.332;12.336;2022-12-18T08:28:42;3.40;99.90
19888;DHT22;10106;51.332;12.336;2022-12-18T08:31:07;4.50;99.90
19888;DHT22;10106;51.332;12.336;2022-12-18T08:33:33;5.00;99.90
19888;DHT22;10106;51.332;12.336;2022-12-18T08:35:59;5.50;98.30
19888;DHT22;10106;51.332;12.336;2022-12-18T08:38:25;5.70;95.80
19888;DHT22;10106;51.332;12.336;2022-12-18T08:41:04;5.80;92.10
19888;DHT22;10106;51.332;12.336;2022-12-18T08:43:30;6.40;90.20
19888;DHT22;10106;51.332;12.336;2022-12-18T08:46:14;6.70;87.20
19888;DHT22;10106;51.332;12.336;2022-12-18T08:48:41;7.30;79.70
19888;DHT22;10106;51.332;12.336;2022-12-18T08:51:06;6.60;79.50
19888;DHT22;10106;51.332;12.336;2022-12-18T08:53:35;6.80;77.70
19888;DHT22;10106;51.332;12.336;2022-12-18T08:56:00;7.00;80.50
19888;DHT22;10106;51.332;12.336;2022-12-18T08:58:26;7.00;80.30
19888;DHT22;10106;51.332;12.336;2022-12-18T09:00:51;7.40;76.80
19888;DHT22;10106;51.332;12.336;2022-12-18T09:03:17;7.60;71.30
19888;DHT22;10106;51.332;12.336;2022-12-18T09:10:40;3.30;82.30
19888;DHT22;10106;51.332;12.336;2022-12-18T09:13:06;1.00;94.60
19888;DHT22;10106;51.332;12.336;2022-12-18T09:15:32;-0.70;99.90
19888;DHT22;10106;51.332;12.336;2022-12-18T09:17:57;-1.90;99.90
19888;DHT22;10106;51.332;12.336;2022-12-18T09:20:23;-2.60;99.90
19888;DHT22;10106;51.332;12.336;2022-12-18T09:22:49;-3.00;99.90
19888;DHT22;10106;51.332;12.336;2022-12-18T09:25:15;-3.30;99.90
19888;DHT22;10106;51.332;12.336;2022-12-18T09:27:40;-3.60;99.90
19888;DHT22;10106;51.332;12.336;2022-12-18T09:30:06;-3.90;99.90
19888;DHT22;10106;51.332;12.336;2022-12-18T09:32:32;-4.20;99.90
19888;DHT22;10106;51.332;12.336;2022-12-18T09:34:58;-4.40;99.90
19888;DHT22;10106;51.332;12.336;2022-12-18T09:37:23;-4.50;99.90
19888;DHT22;10106;51.332;12.336;2022-12-18T09:39:49;-4.60;99.90
19888;DHT22;10106;51.332;12.336;2022-12-18T09:42:17;-4.60;99.90
19888;DHT22;10106;51.332;12.336;2022-12-18T09:44:45;-4.60;99.90
19888;DHT22;10106;51.332;12.336;2022-12-18T09:49:46;-4.70;99.90
19888;DHT22;10106;51.332;12.336;2022-12-18T09:54:40;-4.70;99.90
19888;DHT22;10106;51.332;12.336;2022-12-18T09:57:09;-4.60;99.90
19888;DHT22;10106;51.332;12.336;2022-12-18T09:59:37;-4.60;99.90
19888;DHT22;10106;51.332;12.336;2022-12-18T10:02:14;-4.50;99.90
19888;DHT22;10106;51.332;12.336;2022-12-18T10:04:39;-4.40;99.90
19888;DHT22;10106;51.332;12.336;2022-12-18T10:07:08;-4.20;99.90
19888;DHT22;10106;51.332;12.336;2022-12-18T10:09:40;-4.20;99.90
19888;DHT22;10106;51.332;12.336;2022-12-18T10:12:12;-4.20;99.90
19888;DHT22;10106;51.332;12.336;2022-12-18T10:27:32;-4.00;99.90
19888;DHT22;10106;51.332;12.336;2022-12-18T10:29:58;-4.00;99.90
19888;DHT22;10106;51.332;12.336;2022-12-18T10:32:27;-4.00;99.90
19888;DHT22;10106;51.332;12.336;2022-12-18T10:34:54;-4.00;99.90
19888;DHT22;10106;51.332;12.336;2022-12-18T10:37:21;-4.00;99.90
19888;DHT22;10106;51.332;12.336;2022-12-18T10:40:04;-4.00;99.90
19888;DHT22;10106;51.332;12.336;2022-12-18T10:42:32;-4.00;99.90
19888;DHT22;10106;51.332;12.336;2022-12-18T10:45:14;-3.90;99.90
19888;DHT22;10106;51.332;12.336;2022-12-18T10:47:44;-3.80;99.90
19888;DHT22;10106;51.332;12.336;2022-12-18T10:50:24;-3.80;99.90
19888;DHT22;10106;51.332;12.336;2022-12-18T10:52:58;-3.70;99.90
19888;DHT22;10106;51.332;12.336;2022-12-18T10:55:26;-3.60;99.90
19888;DHT22;10106;51.332;12.336;2022-12-18T10:57:52;-3.60;99.90
19888;DHT22;10106;51.332;12.336;2022-12-18T11:00:20;-3.50;99.90
19888;DHT22;10106;51.332;12.336;2022-12-18T11:02:46;-3.50;99.90
19888;DHT22;10106;51.332;12.336;2022-12-18T11:05:31;-3.50;99.90
19888;DHT22;10106;51.332;12.336;2022-12-18T11:07:58;-3.40;99.90
19888;DHT22;10106;51.332;12.336;2022-12-18T11:10:45;-3.40;99.90
19888;DHT22;10106;51.332;12.336;2022-12-18T11:13:10;-3.30;99.90
19888;DHT22;10106;51.332;12.336;2022-12-18T11:15:36;-3.40;99.90
19888;DHT22;10106;51.332;12.336;2022-12-18T11:18:02;-3.20;99.90
19888;DHT22;10106;51.332;12.336;2022-12-18T11:20:31;-3.30;99.90
19888;DHT22;10106;51.332;12.336;2022-12-18T11:23:04;-3.30;99.90
19888;DHT22;10106;51.332;12.336;2022-12-18T11:25:31;-3.30;99.90
19888;DHT22;10106;51.332;12.336;2022-12-18T11:28:02;-3.30;99.90
19888;DHT22;10106;51.332;12.336;2022-12-18T11:33:04;-3.40;99.90
19888;DHT22;10106;51.332;12.336;2022-12-18T11:35:33;-3.40;99.90
19888;DHT22;10106;51.332;12.336;2022-12-18T11:38:06;-3.40;99.90
19888;DHT22;10106;51.332;12.336;2022-12-18T11:40:35;-3.50;99.90
19888;DHT22;10106;51.332;12.336;2022-12-18T11:43:26;-3.50;99.90
19888;DHT22;10106;51.332;12.336;2022-12-18T11:45:54;-3.50;99.90
19888;DHT22;10106;51.332;12.336;2022-12-18T11:48:32;-3.50;99.90
19888;DHT22;10106;51.332;12.336;2022-12-18T11:50:59;-3.40;99.90
19888;DHT22;10106;51.332;12.336;2022-12-18T11:53:26;-3.30;99.90
19888;DHT22;10106;51.332;12.336;2022-12-18T11:55:58;-3.40;99.90
19888;DHT22;10106;51.332;12.336;2022-12-18T12:01:04;-3.30;99.90
19888;DHT22;10106;51.332;12.336;2022-12-18T12:08:44;-3.20;99.90
19888;DHT22;10106;51.332;12.336;2022-12-18T12:14:00;-3.20;99.90
19888;DHT22;10106;51.332;12.336;2022-12-18T12:16:50;-3.10;99.90
19888;DHT22;10106;51.332;12.336;2022-12-18T12:34:38;-2.90;99.90
19888;DHT22;10106;51.332;12.336;2022-12-18T12:40:05;-3.00;99.90
19888;DHT22;10106;51.332;12.336;2022-12-18T12:42:34;-3.00;99.90
19888;DHT22;10106;51.332;12.336;2022-12-18T12:45:30;-3.00;99.90
19888;DHT22;10106;51.332;12.336;2022-12-18T12:48:00;-2.90;99.90
19888;DHT22;10106;51.332;12.336;2022-12-18T12:50:27;-3.10;99.90
19888;DHT22;10106;51.332;12.336;2022-12-18T12:52:53;-3.10;99.90
19888;DHT22;10106;51.332;12.336;2022-12-18T12:55:21;-3.10;99.90
19888;DHT22;10106;51.332;12.336;2022-12-18T13:00:21;-3.10;99.90
19888;DHT22;10106;51.332;12.336;2022-12-18T13:02:54;-3.00;99.90
19888;DHT22;10106;51.332;12.336;2022-12-18T13:05:38;-3.00;99.90
19888;DHT22;10106;51.332;12.336;2022-12-18T13:08:06;-3.00;99.90
19888;DHT22;10106;51.332;12.336;2022-12-18T13:10:38;-3.00;99.90
19888;DHT22;10106;51.332;12.336;2022-12-18T13:13:05;-3.00;99.90
19888;DHT22;10106;51.332;12.336;2022-12-18T13:15:39;-3.20;99.90
19888;DHT22;10106;51.332;12.336;2022-12-18T13:20:37;-3.20;99.90
19888;DHT22;10106;51.332;12.336;2022-12-18T13:25:45;-3.20;99.90
19888;DHT22;10106;51.332;12.336;2022-12-18T13:28:12;-3.30;99.90
19888;DHT22;10106;51.332;12.336;2022-12-18T13:30:42;-3.40;99.90
19888;DHT22;10106;51.332;12.336;2022-12-18T13:38:33;-3.60;99.90
19888;DHT22;10106;51.332;12.336;2022-12-18T13:40:58;-3.70;99.90
19888;DHT22;10106;51.332;12.336;2022-12-18T13:43:26;-3.70;99.90
19888;DHT22;10106;51.332;12.336;2022-12-18T13:48:38;-3.90;99.90
19888;DHT22;10106;51.332;12.336;2022-12-18T13:51:05;-3.90;99.90
19888;DHT22;10106;51.332;12.336;2022-12-18T13:53:44;-3.90;99.90
19888;DHT22;10106;51.332;12.336;2022-12-18T13:56:16;-4.00;99.90
19888;DHT22;10106;51.332;12.336;2022-12-18T13:58:42;-4.00;99.90
19888;DHT22;10106;51.332;12.336;2022-12-18T14:01:24;-4.00;99.90
19888;DHT22;10106;51.332;12.336;2022-12-18T14:03:50;-4.10;99.90
19888;DHT22;10106;51.332;12.336;2022-12-18T14:06:15;-4.10;99.90
19888;DHT22;10106;51.332;12.336;2022-12-18T14:08:41;-4.10;99.90
19888;DHT22;10106;51.332;12.336;2022-12-18T14:13:42;-4.10;99.90
19888;DHT22;10106;51.332;12.336;2022-12-18T14:16:11;-4.10;99.90
19888;DHT22;10106;51.332;12.336;2022-12-18T14:18:41;-4.10;99.90
19888;DHT22;10106;51.332;12.336;2022-12-18T14:21:15;-4.10;99.90
19888;DHT22;10106;51.332;12.336;2022-12-18T14:23:42;-4.20;99.90
19888;DHT22;10106;51.332;12.336;2022-12-18T14:26:27;-4.20;99.90
19888;DHT22;10106;51.332;12.336;2022-12-18T14:28:55;-4.20;99.90
19888;DHT22;10106;51.332;12.336;2022-12-18T14:31:22;-4.30;99.90
19888;DHT22;10106;51.332;12.336;2022-12-18T14:33:48;-4.30;99.90
19888;DHT22;10106;51.332;12.336;2022-12-18T14:36:16;-4.40;99.90
19888;DHT22;10106;51.332;12.336;2022-12-18T14:38:42;-4.40;99.90
19888;DHT22;10106;51.332;12.336;2022-12-18T14:43:37;-4.50;99.90
19888;DHT22;10106;51.332;12.336;2022-12-18T14:46:04;-4.50;99.90
19888;DHT22;10106;51.332;12.336;2022-12-18T14:51:14;-4.50;99.90
19888;DHT22;10106;51.332;12.336;2022-12-18T14:53:42;-4.60;99.90
19888;DHT22;10106;51.332;12.336;2022-12-18T14:58:50;-4.60;99.90
19888;DHT22;10106;51.332;12.336;2022-12-18T15:01:38;-4.70;99.90
19888;DHT22;10106;51.332;12.336;2022-12-18T15:04:03;-4.70;99.90
19888;DHT22;10106;51.332;12.336;2022-12-18T15:08:59;-4.80;99.90
19888;DHT22;10106;51.332;12.336;2022-12-18T15:11:43;-4.80;99.90
19888;DHT22;10106;51.332;12.336;2022-12-18T15:17:17;-4.90;99.90
19888;DHT22;10106;51.332;12.336;2022-12-18T15:19:44;-4.80;99.90
19888;DHT22;10106;51.332;12.336;2022-12-18T15:24:45;-4.80;99.90
19888;DHT22;10106;51.332;12.336;2022-12-18T15:27:30;-4.90;99.90
19888;DHT22;10106;51.332;12.336;2022-12-18T15:30:10;-4.90;99.90
19888;DHT22;10106;51.332;12.336;2022-12-18T15:32:41;-4.80;99.90
19888;DHT22;10106;51.332;12.336;2022-12-18T15:37:36;-4.80;99.90
19888;DHT22;10106;51.332;12.336;2022-12-18T15:40:02;-4.80;99.90
19888;DHT22;10106;51.332;12.336;2022-12-18T15:42:28;-4.70;99.90
19888;DHT22;10106;51.332;12.336;2022-12-18T15:45:13;-4.70;99.90
19888;DHT22;10106;51.332;12.336;2022-12-18T15:47:39;-4.70;99.90
19888;DHT22;10106;51.332;12.336;2022-12-18T15:50:05;-4.70;99.90
19888;DHT22;10106;51.332;12.336;2022-12-18T15:52:37;-4.70;99.90
19888;DHT22;10106;51.332;12.336;2022-12-18T15:55:05;-4.70;99.90
19888;DHT22;10106;51.332;12.336;2022-12-18T15:57:49;-4.70;99.90
19888;DHT22;10106;51.332;12.336;2022-12-18T16:00:15;-4.50;99.90
19888;DHT22;10106;51.332;12.336;2022-12-18T16:02:41;-4.60;99.90
19888;DHT22;10106;51.332;12.336;2022-12-18T16:05:24;-4.60;99.90
19888;DHT22;10106;51.332;12.336;2022-12-18T16:07:51;-4.60;99.90
19888;DHT22;10106;51.332;12.336;2022-12-18T16:10:16;-4.70;99.90
19888;DHT22;10106;51.332;12.336;2022-12-18T16:12:42;-4.70;99.90
19888;DHT22;10106;51.332;12.336;2022-12-18T16:15:09;-4.70;99.90
19888;DHT22;10106;51.332;12.336;2022-12-18T16:17:35;-4.80;99.90
19888;DHT22;10106;51.332;12.336;2022-12-18T16:20:01;-4.80;99.90
19888;DHT22;10106;51.332;12.336;2022-12-18T16:22:27;-4.80;99.90
19888;DHT22;10106;51.332;12.336;2022-12-18T16:24:54;-4.90;99.90
19888;DHT22;10106;51.332;12.336;2022-12-18T16:27:21;-4.80;99.90
19888;DHT22;10106;51.332;12.336;2022-12-18T16:29:47;-4.80;99.90
19888;DHT22;10106;51.332;12.336;2022-12-18T16:32:13;-4.80;99.90
19888;DHT22;10106;51.332;12.336;2022-12-18T16:34:39;-4.90;99.90
19888;DHT22;10106;51.332;12.336;2022-12-18T16:37:06;-4.90;99.90
19888;DHT22;10106;51.332;12.336;2022-12-18T16:39:33;-4.90;99.90
19888;DHT22;10106;51.332;12.336;2022-12-18T16:41:59;-4.80;99.90
19888;DHT22;10106;51.332;12.336;2022-12-18T16:44:25;-4.80;99.90
19888;DHT22;10106;51.332;12.336;2022-12-18T16:46:51;-4.80;99.90
19888;DHT22;10106;51.332;12.336;2022-12-18T16:49:17;-4.90;99.90
19888;DHT22;10106;51.332;12.336;2022-12-18T16:51:43;-4.80;99.90
19888;DHT22;10106;51.332;12.336;2022-12-18T16:54:09;-4.90;99.90
19888;DHT22;10106;51.332;12.336;2022-12-18T16:56:35;-4.80;99.90
19888;DHT22;10106;51.332;12.336;2022-12-18T16:59:01;-4.80;99.90
19888;DHT22;10106;51.332;12.336;2022-12-18T17:01:27;-4.80;99.90
19888;DHT22;10106;51.332;12.336;2022-12-18T17:03:57;-4.80;99.90
19888;DHT22;10106;51.332;12.336;2022-12-18T17:06:24;-4.80;99.90
19888;DHT22;10106;51.332;12.336;2022-12-18T17:08:59;-4.70;99.90
19888;DHT22;10106;51.332;12.336;2022-12-18T17:11:26;-4.80;99.90
19888;DHT22;10106;51.332;12.336;2022-12-18T17:13:52;-4.80;99.90
19888;DHT22;10106;51.332;12.336;2022-12-18T17:16:18;-4.80;99.90
19888;DHT22;10106;51.332;12.336;2022-12-18T17:18:43;-4.70;99.90
19888;DHT22;10106;51.332;12.336;2022-12-18T17:21:09;-4.70;99.90
19888;DHT22;10106;51.332;12.336;2022-12-18T17:23:38;-4.70;99.90
19888;DHT22;10106;51.332;12.336;2022-12-18T17:26:03;-4.70;99.90
19888;DHT22;10106;51.332;12.336;2022-12-18T17:28:31;-4.70;99.90